Wasilla, Alaska
Current Conditions -  °F | °C
As of 11:56 PM on Saturday 25 Oct 2014 (Local Time) from PAWS Reporting Station
Overcast Overcast  
Wind Chill: -1°   Ceiling: 4100
Heat Index: -1°   Visibility: 6mi
Dew Point: -4°   Wind: 3mph
Humidity: 80%   Direction: 250°WSW
Pressure: 29.81"   Gusts: NA
Location:  61.58°N, 149.45°W
Report Text: PAWS 260756Z AUTO 25003KT 6SM OVC041 M01/M04 A2981 RMK AO1
Loading
Personal Weather Stations






























Interactive Weather Map
Tropical Storm Tracking
New forecast layout! Learn more

10-Day Weather Forecast

Advertisements
Track Severe Weather on mobile